Time;durP1;ratioP1;P1;durP2;ratioP2;P2;SDS_P1;SDS_P2;PMS_P1;PMS_P2;Temp;Humidity;BMP_temperature;BMP_pressure;BME280_temperature;BME280_humidity;BME280_pressure;Samples;Min_cycle;Max_cycle;Signal;HPM_P1;HPM_P2
2021/04/24 00:00:17;;;;;;;23.25;7.75;;;7.40;99.90;;;;;;5018648;28;20049;-87
2021/04/24 00:02:45;;;;;;;19.40;7.47;;;7.30;99.90;;;;;;5021320;28;20060;-86
2021/04/24 00:05:26;;;;;;;22.65;8.82;;;8.30;99.90;;;;;;5036945;28;20064;-85
2021/04/24 00:07:56;;;;;;;25.52;9.45;;;7.30;99.90;;;;;;5000829;28;20064;-85
2021/04/24 00:10:23;;;;;;;18.70;6.60;;;7.30;99.90;;;;;;5009776;28;20057;-85
2021/04/24 00:12:51;;;;;;;12.98;6.80;;;6.80;99.90;;;;;;5022573;28;20060;-86
2021/04/24 00:15:19;;;;;;;23.98;8.43;;;8.70;99.90;;;;;;5036956;28;20129;-85
2021/04/24 00:17:46;;;;;;;15.18;7.10;;;7.20;99.90;;;;;;5021389;28;20041;-86
2021/04/24 00:20:19;;;;;;;16.27;6.43;;;7.20;99.90;;;;;;5022241;28;20068;-85
2021/04/24 00:22:48;;;;;;;16.30;7.43;;;;;;;;;;5039425;28;20512;-85
2021/04/24 00:25:17;;;;;;;25.65;7.30;;;;;;;;;;5022265;28;20057;-86
2021/04/24 00:27:44;;;;;;;22.08;8.45;;;6.90;99.90;;;;;;5019180;28;20208;-85
2021/04/24 00:30:13;;;;;;;18.30;6.40;;;7.10;99.90;;;;;;5019841;28;20075;-85
2021/04/24 00:32:41;;;;;;;16.80;7.50;;;7.00;99.90;;;;;;5038718;28;20037;-85
2021/04/24 00:35:18;;;;;;;25.20;7.38;;;8.20;99.90;;;;;;5023424;28;20059;-85
2021/04/24 00:37:47;;;;;;;22.73;7.03;;;9.40;99.90;;;;;;5041419;28;20053;-83
2021/04/24 00:40:16;;;;;;;21.45;8.13;;;6.90;99.90;;;;;;5023075;28;20056;-85
2021/04/24 00:42:46;;;;;;;21.65;6.90;;;6.90;99.90;;;;;;5023229;28;20053;-85
2021/04/24 00:45:16;;;;;;;15.95;7.90;;;6.90;99.90;;;;;;5018917;28;20058;-86
2021/04/24 00:47:43;;;;;;;14.68;7.40;;;6.80;99.90;;;;;;5005383;28;20126;-85
2021/04/24 00:50:15;;;;;;;15.27;7.63;;;6.80;99.90;;;;;;5037265;28;20164;-85
2021/04/24 00:52:44;;;;;;;22.02;7.63;;;6.80;99.90;;;;;;5000865;28;20038;-85
2021/04/24 00:55:13;;;;;;;18.80;8.02;;;6.80;99.90;;;;;;5027044;28;20480;-83
2021/04/24 00:57:45;;;;;;;19.50;7.35;;;7.10;99.90;;;;;;5040242;28;20064;-85
2021/04/24 01:00:28;;;;;;;29.55;10.00;;;6.10;99.90;;;;;;5040736;28;20419;-85
2021/04/24 01:02:57;;;;;;;15.15;7.50;;;;;;;;;;5007862;28;20065;-85
2021/04/24 01:05:37;;;;;;;19.75;7.20;;;6.70;99.90;;;;;;5021351;28;20053;-85
2021/04/24 01:08:08;;;;;;;22.05;9.68;;;6.90;99.90;;;;;;5020139;28;20041;-86
2021/04/24 01:10:38;;;;;;;22.98;9.23;;;7.50;99.90;;;;;;5024901;28;20416;-85
2021/04/24 01:13:08;;;;;;;21.55;8.63;;;7.00;99.90;;;;;;5010239;28;20049;-85
2021/04/24 01:15:37;;;;;;;15.75;7.65;;;6.50;99.90;;;;;;5019113;28;20049;-85
2021/04/24 01:18:06;;;;;;;25.02;8.27;;;6.50;99.90;;;;;;5014577;28;20056;-86
2021/04/24 01:20:35;;;;;;;18.63;8.27;;;6.50;99.90;;;;;;5004349;28;20057;-85
2021/04/24 01:23:06;;;;;;;22.48;8.60;;;6.50;99.90;;;;;;5019998;28;20049;-85
2021/04/24 01:25:35;;;;;;;20.90;10.83;;;6.80;99.90;;;;;;5033705;28;20048;-84
2021/04/24 01:28:04;;;;;;;19.63;8.20;;;6.40;99.90;;;;;;5032735;28;20061;-85
2021/04/24 01:30:35;;;;;;;31.70;13.00;;;6.40;99.90;;;;;;5015489;28;20057;-83
2021/04/24 01:33:04;;;;;;;;;;;6.40;99.90;;;;;;5032210;28;20057;-86
2021/04/24 01:35:33;;;;;;;22.83;8.38;;;6.40;99.90;;;;;;5030365;28;19921;-86
2021/04/24 01:38:01;;;;;;;20.45;9.18;;;6.80;99.90;;;;;;4997302;28;20053;-85
2021/04/24 01:40:28;;;;;;;18.98;8.50;;;7.30;99.90;;;;;;5030690;28;20051;-85
2021/04/24 01:42:55;;;;;;;20.05;8.88;;;6.30;99.90;;;;;;5006217;28;20487;-84
2021/04/24 01:45:24;;;;;;;24.10;10.13;;;6.70;99.90;;;;;;5011724;28;20058;-85
2021/04/24 01:47:52;;;;;;;17.23;8.80;;;8.00;99.90;;;;;;5031486;28;20053;-85
2021/04/24 01:50:28;;;;;;;21.55;8.70;;;6.20;99.90;;;;;;5015306;28;20057;-84
2021/04/24 01:52:56;;;;;;;26.45;10.95;;;6.20;99.90;;;;;;5015761;28;20042;-85
2021/04/24 01:55:29;;;;;;;21.67;8.65;;;6.20;99.90;;;;;;5013944;28;20048;-85
2021/04/24 01:57:58;;;;;;;14.70;7.97;;;6.10;99.90;;;;;;4994285;28;20053;-85
2021/04/24 02:00:29;;;;;;;26.90;10.40;;;6.10;99.90;;;;;;5031472;28;20057;-84
2021/04/24 02:02:58;;;;;;;17.42;7.38;;;6.10;99.90;;;;;;5031123;28;20092;-86
2021/04/24 02:05:26;;;;;;;28.13;12.52;;;7.80;99.90;;;;;;5018819;28;20068;-85
2021/04/24 02:07:54;;;;;;;26.92;9.55;;;7.30;99.90;;;;;;5012508;28;20057;-84
2021/04/24 02:10:29;;;;;;;18.83;8.77;;;6.10;99.90;;;;;;5030870;28;20057;-86
2021/04/24 02:12:58;;;;;;;19.35;8.43;;;6.60;99.90;;;;;;5014197;28;20714;-85
2021/04/24 02:15:26;;;;;;;21.90;7.97;;;6.10;99.90;;;;;;5014350;28;20072;-84
2021/04/24 02:17:53;;;;;;;24.77;9.27;;;5.90;99.90;;;;;;5013310;28;20428;-85
2021/04/24 02:20:22;;;;;;;27.05;11.20;;;5.90;99.90;;;;;;5013246;28;20029;-85
2021/04/24 02:22:50;;;;;;;21.98;9.10;;;6.60;99.90;;;;;;5016631;28;20049;-85
2021/04/24 02:25:18;;;;;;;23.95;9.50;;;5.90;99.90;;;;;;5030393;28;20061;-85
2021/04/24 02:27:46;;;;;;;23.35;8.25;;;;;;;;;;5012807;28;20053;-85
2021/04/24 02:30:16;;;;;;;15.60;6.88;;;5.80;99.90;;;;;;5030936;28;20057;-85
2021/04/24 02:32:45;;;;;;;20.90;8.80;;;5.70;99.90;;;;;;5012324;28;20052;-85
2021/04/24 02:35:15;;;;;;;31.92;8.88;;;5.70;99.90;;;;;;4997081;28;20061;-86
2021/04/24 02:37:43;;;;;;;17.88;8.02;;;5.70;99.90;;;;;;5020970;28;20057;-85
2021/04/24 02:40:15;;;;;;;20.83;8.77;;;7.00;99.90;;;;;;5030240;28;20045;-85
2021/04/24 02:42:42;;;;;;;15.57;8.00;;;5.50;99.90;;;;;;5012562;28;20057;-83
2021/04/24 02:45:11;;;;;;;20.67;10.10;;;5.40;99.90;;;;;;4994406;28;20054;-84
2021/04/24 02:47:39;;;;;;;22.65;9.70;;;5.40;99.90;;;;;;5024259;28;20485;-84
2021/04/24 02:50:09;;;;;;;25.92;10.57;;;5.70;99.90;;;;;;5006063;28;20083;-84
2021/04/24 02:52:37;;;;;;;27.43;10.83;;;5.30;99.90;;;;;;5030486;28;20064;-85
2021/04/24 02:55:06;;;;;;;27.20;9.60;;;5.50;99.90;;;;;;5012384;28;20298;-85
2021/04/24 02:57:33;;;;;;;22.30;8.50;;;5.30;99.90;;;;;;5013312;28;20053;-83
2021/04/24 03:00:02;;;;;;;18.35;8.73;;;5.30;99.90;;;;;;5028578;28;20630;-85
2021/04/24 03:02:29;;;;;;;32.30;9.63;;;6.80;99.90;;;;;;5029232;28;20531;-85
2021/04/24 03:04:57;;;;;;;27.67;9.68;;;5.30;99.90;;;;;;5031159;28;20053;-85
2021/04/24 03:07:24;;;;;;;20.88;8.35;;;;;;;;;;5031209;28;20436;-84
2021/04/24 03:09:52;;;;;;;18.95;9.40;;;5.30;99.90;;;;;;4996567;28;20049;-84
2021/04/24 03:12:19;;;;;;;24.15;9.63;;;3.70;99.90;;;;;;5013333;28;20045;-84
2021/04/24 03:14:46;;;;;;;21.23;9.43;;;5.30;99.90;;;;;;4997122;28;20046;-86
2021/04/24 03:17:13;;;;;;;18.85;9.07;;;5.20;99.90;;;;;;5010895;28;20049;-84
2021/04/24 03:19:40;;;;;;;25.55;11.63;;;5.20;99.90;;;;;;5012407;28;20049;-84
2021/04/24 03:22:07;;;;;;;21.15;11.32;;;5.10;99.90;;;;;;5029425;28;20049;-84
2021/04/24 03:24:35;;;;;;;24.33;12.95;;;5.10;99.90;;;;;;4983934;28;20050;-84
2021/04/24 03:27:02;;;;;;;17.38;9.68;;;5.10;99.90;;;;;;5025991;28;20065;-85
2021/04/24 03:29:29;;;;;;;28.38;9.05;;;5.10;99.90;;;;;;5013048;28;20045;-84
2021/04/24 03:31:56;;;;;;;26.70;11.18;;;5.00;99.90;;;;;;5029715;28;20065;-84
2021/04/24 03:34:24;;;;;;;31.80;12.48;;;5.00;99.90;;;;;;5029667;28;20057;-84
2021/04/24 03:36:52;;;;;;;18.50;10.48;;;5.50;99.90;;;;;;4996337;28;20072;-83
2021/04/24 03:39:20;;;;;;;20.60;9.75;;;;;;;;;;5012800;28;20045;-84
2021/04/24 03:41:47;;;;;;;30.73;9.73;;;5.00;99.90;;;;;;5018798;28;20044;-85
2021/04/24 03:44:14;;;;;;;23.15;9.45;;;7.60;99.90;;;;;;5034122;28;20053;-85
2021/04/24 03:46:42;;;;;;;26.10;10.63;;;;;;;;;;5030890;28;20076;-84
2021/04/24 03:49:10;;;;;;;27.10;10.50;;;;;;;;;;5027517;28;20052;-85
2021/04/24 03:51:37;;;;;;;20.13;8.32;;;;;;;;;;5042485;28;20053;-85
2021/04/24 03:54:05;;;;;;;25.63;10.82;;;5.00;99.90;;;;;;5047461;28;20057;-84
2021/04/24 03:56:32;;;;;;;20.00;10.38;;;4.90;99.90;;;;;;5046359;28;20053;-85
2021/04/24 03:58:59;;;;;;;26.30;11.27;;;4.90;99.90;;;;;;5008761;28;20198;-84
2021/04/24 04:01:26;;;;;;;16.88;8.63;;;6.20;99.90;;;;;;5031336;28;20052;-84
2021/04/24 04:03:54;;;;;;;18.95;9.45;;;4.80;99.90;;;;;;4997827;28;20052;-84
2021/04/24 04:06:21;;;;;;;23.02;9.45;;;7.00;99.90;;;;;;5030637;28;20064;-84
2021/04/24 04:08:49;;;;;;;24.65;10.48;;;4.10;99.90;;;;;;5013530;28;20400;-84
2021/04/24 04:11:17;;;;;;;24.55;10.43;;;4.60;99.90;;;;;;5036717;28;20057;-86
2021/04/24 04:13:44;;;;;;;27.02;10.02;;;4.50;99.90;;;;;;5037496;28;20049;-85
2021/04/24 04:16:12;;;;;;;31.50;10.82;;;4.50;99.90;;;;;;5038062;28;20092;-84
2021/04/24 04:18:39;;;;;;;23.70;9.57;;;4.40;99.90;;;;;;5019722;28;20056;-86
2021/04/24 04:21:06;;;;;;;16.08;9.32;;;4.60;99.90;;;;;;5009698;28;20076;-84
2021/04/24 04:23:34;;;;;;;21.98;9.70;;;4.30;99.90;;;;;;5039122;28;20415;-84
2021/04/24 04:26:02;;;;;;;36.80;12.25;;;4.30;99.90;;;;;;5037850;28;20053;-84
2021/04/24 04:28:29;;;;;;;16.73;8.98;;;5.90;99.90;;;;;;5036741;28;20056;-87
2021/04/24 04:30:57;;;;;;;26.30;9.93;;;4.00;99.90;;;;;;5019297;28;20064;-86
2021/04/24 04:33:25;;;;;;;25.77;10.90;;;3.90;99.90;;;;;;5037048;28;20077;-86
2021/04/24 04:35:52;;;;;;;35.22;10.02;;;4.00;99.90;;;;;;5037303;28;20060;-86
2021/04/24 04:38:20;;;;;;;19.25;9.27;;;;;;;;;;5038573;28;20072;-87
2021/04/24 04:40:47;;;;;;;24.50;9.10;;;4.10;99.90;;;;;;5004239;28;20048;-87
2021/04/24 04:43:15;;;;;;;26.50;13.48;;;4.60;99.90;;;;;;5037801;28;20060;-87
2021/04/24 04:45:42;;;;;;;24.40;10.70;;;4.00;99.90;;;;;;5003193;28;20049;-84
2021/04/24 04:48:10;;;;;;;24.88;9.60;;;;;;;;;;5037222;28;20050;-87
2021/04/24 04:50:39;;;;;;;21.05;10.90;;;4.00;99.90;;;;;;5017437;28;20061;-87
2021/04/24 04:53:07;;;;;;;28.02;11.50;;;;;;;;;;5032628;28;20061;-88
2021/04/24 04:55:36;;;;;;;18.35;8.65;;;4.00;99.90;;;;;;5016162;28;20058;-87
2021/04/24 04:58:04;;;;;;;22.65;10.65;;;;;;;;;;5031338;28;20058;-84
2021/04/24 05:00:31;;;;;;;22.70;10.90;;;;;;;;;;5031283;28;20060;-85
2021/04/24 05:02:59;;;;;;;19.30;10.68;;;;;;;;;;5033163;28;20053;-89
2021/04/24 05:05:26;;;;;;;26.85;11.07;;;4.00;99.90;;;;;;5032425;28;20045;-86
2021/04/24 05:07:54;;;;;;;21.58;10.02;;;;;;;;;;5033047;28;20053;-86
2021/04/24 05:10:25;;;;;;;34.28;10.50;;;4.00;99.90;;;;;;5032962;28;20073;-86
2021/04/24 05:12:53;;;;;;;29.92;10.13;;;;;;;;;;5037283;28;20041;-88
2021/04/24 05:15:21;;;;;;;23.75;9.88;;;;;;;;;;5041042;28;20072;-85
2021/04/24 05:17:50;;;;;;;23.65;11.00;;;;;;;;;;5020449;28;20057;-85
2021/04/24 05:20:18;;;;;;;24.77;10.70;;;;;;;;;;5031902;28;20064;-87
2021/04/24 05:22:46;;;;;;;30.20;11.43;;;;;;;;;;5026507;28;20057;-88
2021/04/24 05:25:15;;;;;;;23.67;11.10;;;4.40;99.90;;;;;;5036227;28;20057;-87
2021/04/24 05:27:45;;;;;;;28.48;12.35;;;;;;;;;;5035415;28;20061;-88
2021/04/24 05:30:17;;;;;;;32.63;13.13;;;3.90;99.90;;;;;;5036939;28;20068;-87
2021/04/24 05:32:46;;;;;;;27.90;14.90;;;4.30;99.90;;;;;;5032916;28;20037;-87
2021/04/24 05:35:15;;;;;;;23.83;12.45;;;4.40;99.90;;;;;;5030218;28;20064;-88
2021/04/24 05:37:43;;;;;;;27.58;14.95;;;;;;;;;;5030570;28;20053;-88
2021/04/24 05:40:11;;;;;;;40.10;13.85;;;;;;;;;;5029505;28;20496;-86
2021/04/24 05:42:39;;;;;;;30.58;13.07;;;;;;;;;;5014419;28;20049;-88
2021/04/24 05:45:16;;;;;;;30.98;13.70;;;;;;;;;;5015448;28;20057;-88
2021/04/24 05:47:46;;;;;;;32.30;15.13;;;4.80;99.90;;;;;;5032703;28;20057;-87
2021/04/24 05:50:16;;;;;;;27.20;12.93;;;4.90;99.90;;;;;;5031644;28;20049;-88
2021/04/24 05:52:44;;;;;;;27.20;12.73;;;7.10;99.90;;;;;;5014749;28;20053;-88
2021/04/24 05:55:13;;;;;;;44.60;15.70;;;5.10;99.90;;;;;;5032384;28;20049;-88
2021/04/24 05:57:40;;;;;;;24.85;12.88;;;;;;;;;;5031150;28;20054;-85
2021/04/24 06:00:11;;;;;;;33.00;15.25;;;5.20;99.90;;;;;;5013612;28;20551;-86
2021/04/24 06:02:38;;;;;;;35.15;13.93;;;5.00;99.90;;;;;;5031317;28;20054;-85
2021/04/24 06:05:08;;;;;;;27.55;15.05;;;5.40;99.90;;;;;;5012845;28;20472;-87
2021/04/24 06:07:37;;;;;;;36.33;13.68;;;5.40;99.90;;;;;;5031241;28;20054;-87
2021/04/24 06:10:06;;;;;;;42.05;12.93;;;5.00;99.90;;;;;;5029457;28;20057;-87
2021/04/24 06:12:33;;;;;;;32.20;14.30;;;5.60;99.90;;;;;;5030230;28;20053;-87
2021/04/24 06:15:01;;;;;;;29.67;14.20;;;;;;;;;;5010824;28;20491;-88
2021/04/24 06:17:29;;;;;;;38.15;14.90;;;5.90;99.90;;;;;;5030171;28;20076;-89
2021/04/24 06:19:57;;;;;;;33.80;15.38;;;;;;;;;;5028166;28;20049;-89
2021/04/24 06:22:24;;;;;;;31.45;15.70;;;;;;;;;;5032861;28;20049;-86
2021/04/24 06:24:52;;;;;;;32.97;15.13;;;;;;;;;;5030191;28;20049;-88
2021/04/24 06:27:20;;;;;;;35.25;14.35;;;;;;;;;;5013598;28;20045;-85
2021/04/24 06:29:47;;;;;;;30.40;12.52;;;;;;;;;;5030308;28;20077;-85
2021/04/24 06:32:15;;;;;;;24.20;13.82;;;;;;;;;;5011840;28;20485;-85
2021/04/24 06:34:42;;;;;;;31.08;15.05;;;;;;;;;;5029858;28;20430;-86
2021/04/24 06:37:10;;;;;;;31.38;14.77;;;6.30;99.90;;;;;;5029499;28;20053;-86
2021/04/24 06:39:38;;;;;;;41.15;17.20;;;6.50;99.90;;;;;;5029038;28;20050;-85
2021/04/24 06:42:05;;;;;;;34.60;14.32;;;6.30;99.90;;;;;;5029716;28;20064;-86
2021/04/24 06:44:32;;;;;;;33.38;15.15;;;6.40;99.90;;;;;;5025834;28;20057;-88
2021/04/24 06:47:00;;;;;;;29.05;15.10;;;;;;;;;;5011148;28;20053;-88
2021/04/24 06:49:28;;;;;;;32.85;15.18;;;;;;;;;;5011708;28;20045;-86
2021/04/24 06:51:56;;;;;;;35.03;15.73;;;6.60;99.90;;;;;;5026597;28;20053;-87
2021/04/24 06:54:23;;;;;;;30.88;15.65;;;6.50;99.90;;;;;;5038272;28;20056;-85
2021/04/24 06:56:50;;;;;;;31.02;12.88;;;;;;;;;;5034154;28;20068;-85
2021/04/24 06:59:18;;;;;;;45.45;17.27;;;7.20;99.90;;;;;;5006830;28;20053;-86
2021/04/24 07:01:45;;;;;;;31.15;14.98;;;;;;;;;;5028271;28;20053;-84
2021/04/24 07:04:12;;;;;;;36.65;15.35;;;7.30;99.90;;;;;;5010267;28;20420;-86
2021/04/24 07:06:40;;;;;;;38.20;17.35;;;9.00;99.90;;;;;;5029687;28;20053;-85
2021/04/24 07:09:09;;;;;;;35.33;18.05;;;7.60;99.90;;;;;;5012239;28;20048;-86
2021/04/24 07:11:36;;;;;;;39.95;15.57;;;7.70;99.90;;;;;;5012095;28;20057;-87
2021/04/24 07:14:04;;;;;;;34.75;15.95;;;;;;;;;;5010907;28;20064;-84
2021/04/24 07:16:31;;;;;;;31.17;16.85;;;8.00;99.90;;;;;;5008689;28;20072;-85
2021/04/24 07:18:58;;;;;;;38.80;15.95;;;10.30;99.90;;;;;;5009545;28;20057;-84
2021/04/24 07:21:26;;;;;;;43.03;17.67;;;8.00;99.90;;;;;;5010587;28;20052;-87
2021/04/24 07:23:54;;;;;;;28.60;13.82;;;;;;;;;;5009307;28;20041;-84
2021/04/24 07:26:23;;;;;;;34.15;13.95;;;;;;;;;;5016409;28;20061;-84
2021/04/24 07:28:51;;;;;;;41.03;15.10;;;;;;;;;;5014751;28;20404;-85
2021/04/24 07:31:20;;;;;;;46.63;18.63;;;8.80;99.90;;;;;;5016674;28;20053;-86
2021/04/24 07:33:48;;;;;;;40.55;20.17;;;9.00;99.90;;;;;;5024393;28;20488;-85
2021/04/24 07:36:16;;;;;;;30.48;13.23;;;;;;;;;;5019033;28;20061;-85
2021/04/24 07:38:43;;;;;;;27.90;13.02;;;;;;;;;;5010050;28;20045;-85
2021/04/24 07:41:11;;;;;;;31.67;14.15;;;;;;;;;;5024110;28;20489;-86
2021/04/24 07:43:38;;;;;;;32.85;15.35;;;9.30;99.90;;;;;;5023826;28;20060;-87
2021/04/24 07:46:05;;;;;;;29.30;12.77;;;9.90;99.90;;;;;;5005397;28;20057;-86
2021/04/24 07:48:33;;;;;;;31.23;13.70;;;9.50;99.90;;;;;;5022290;28;20049;-85
2021/04/24 07:51:01;;;;;;;40.58;18.92;;;9.90;99.90;;;;;;5022209;28;20625;-87
2021/04/24 07:53:33;;;;;;;32.30;13.10;;;10.30;99.90;;;;;;5022317;28;20068;-85
2021/04/24 07:56:00;;;;;;;39.15;15.45;;;9.80;99.90;;;;;;5007766;28;20049;-85
2021/04/24 07:58:27;;;;;;;26.13;13.38;;;10.50;99.90;;;;;;4988741;28;20045;-86
2021/04/24 08:00:55;;;;;;;28.33;11.20;;;9.80;99.90;;;;;;5020121;28;20054;-86
2021/04/24 08:03:23;;;;;;;29.00;13.98;;;10.10;99.90;;;;;;5021056;28;20064;-87
2021/04/24 08:05:50;;;;;;;28.63;11.85;;;10.30;99.90;;;;;;5005594;28;20116;-88
2021/04/24 08:08:17;;;;;;;30.17;12.23;;;9.50;99.90;;;;;;5023113;28;20057;-84
2021/04/24 08:10:45;;;;;;;29.85;13.32;;;10.30;99.90;;;;;;5010605;28;20049;-87
2021/04/24 08:13:12;;;;;;;27.75;11.30;;;10.40;99.90;;;;;;4984888;28;20584;-85
2021/04/24 08:15:39;;;;;;;29.38;12.23;;;10.30;99.90;;;;;;5006056;28;20050;-86
2021/04/24 08:18:07;;;;;;;23.73;10.80;;;10.40;99.90;;;;;;5018098;28;20592;-85
2021/04/24 08:20:35;;;;;;;20.88;8.77;;;10.60;99.90;;;;;;5012478;28;20606;-87
2021/04/24 08:23:02;;;;;;;30.77;11.80;;;10.60;99.90;;;;;;5000496;28;20129;-83
2021/04/24 08:25:29;;;;;;;33.90;12.57;;;10.90;99.90;;;;;;5009159;28;20053;-84
2021/04/24 08:27:56;;;;;;;22.63;8.27;;;11.00;99.90;;;;;;5000388;28;20053;-84
2021/04/24 08:30:24;;;;;;;20.73;9.63;;;11.40;99.90;;;;;;4991023;28;20053;-85
2021/04/24 08:32:51;;;;;;;29.90;12.00;;;11.20;99.90;;;;;;5026104;28;20129;-86
2021/04/24 08:35:19;;;;;;;19.52;9.45;;;11.40;99.90;;;;;;5010130;28;20210;-87
2021/04/24 08:37:46;;;;;;;21.95;8.80;;;11.20;99.90;;;;;;4994926;28;20041;-84
2021/04/24 08:40:15;;;;;;;20.90;9.00;;;11.80;99.90;;;;;;4990228;28;20404;-85
2021/04/24 08:42:47;;;;;;;22.83;8.43;;;11.40;99.90;;;;;;5021337;28;20060;-85
2021/04/24 08:45:16;;;;;;;16.50;7.68;;;11.50;99.90;;;;;;5005383;28;20062;-85
2021/04/24 08:47:49;;;;;;;20.65;7.88;;;12.00;99.90;;;;;;5022692;28;20038;-87
2021/04/24 08:50:25;;;;;;;16.17;7.05;;;11.60;99.90;;;;;;4999588;28;20064;-84
2021/04/24 08:52:53;;;;;;;17.65;7.60;;;11.70;99.90;;;;;;5006805;28;20056;-86
2021/04/24 08:55:23;;;;;;;19.63;8.18;;;11.80;99.90;;;;;;5041529;28;20052;-85
2021/04/24 08:57:51;;;;;;;18.85;8.88;;;11.80;99.90;;;;;;5041141;28;20048;-85
2021/04/24 09:00:28;;;;;;;22.02;7.65;;;12.00;99.90;;;;;;4996826;28;20049;-86
2021/04/24 09:02:56;;;;;;;16.40;7.50;;;12.00;99.90;;;;;;5026368;28;20166;-85
2021/04/24 09:05:26;;;;;;;23.33;8.13;;;13.10;99.90;;;;;;5003324;28;20052;-87
2021/04/24 09:08:05;;;;;;;17.58;6.60;;;12.30;99.90;;;;;;5006487;28;20054;-86
2021/04/24 09:10:54;;;;;;;18.13;7.55;;;12.30;99.90;;;;;;5019603;28;20522;-85
2021/04/24 09:13:24;;;;;;;35.17;8.18;;;12.40;99.90;;;;;;5013481;28;20064;-85
2021/04/24 09:15:52;;;;;;;21.45;8.88;;;12.40;99.90;;;;;;5013118;28;20045;-86
2021/04/24 09:18:22;;;;;;;24.75;10.73;;;12.60;99.90;;;;;;5026147;28;20053;-86
2021/04/24 09:20:58;;;;;;;26.88;11.40;;;13.30;99.90;;;;;;4996131;28;20499;-86
2021/04/24 09:23:34;;;;;;;25.15;10.88;;;12.70;99.90;;;;;;4991456;28;20049;-85
2021/04/24 09:26:09;;;;;;;21.15;10.82;;;12.70;99.90;;;;;;5030313;28;20065;-86
2021/04/24 09:28:42;;;;;;;20.80;8.60;;;12.70;99.90;;;;;;5007704;28;20061;-87
2021/04/24 09:31:17;;;;;;;21.33;8.85;;;12.80;99.90;;;;;;5010075;28;20393;-86
2021/04/24 09:33:46;;;;;;;23.13;9.30;;;12.80;99.90;;;;;;5025645;28;20072;-85
2021/04/24 09:36:15;;;;;;;20.88;9.48;;;13.40;99.90;;;;;;4994424;28;20076;-87
2021/04/24 09:38:52;;;;;;;22.98;9.32;;;13.00;99.90;;;;;;4992959;28;20053;-84
2021/04/24 09:41:23;;;;;;;21.05;8.30;;;13.10;99.90;;;;;;5029106;28;20049;-84
2021/04/24 09:44:00;;;;;;;21.05;9.35;;;13.40;99.90;;;;;;5028548;28;20053;-86
2021/04/24 09:46:34;;;;;;;25.92;8.88;;;13.10;99.90;;;;;;5029250;28;20499;-85
2021/04/24 09:49:20;;;;;;;23.60;7.82;;;13.30;99.90;;;;;;5028018;28;20049;-87
2021/04/24 09:52:05;;;;;;;14.65;6.50;;;13.40;99.90;;;;;;5022214;28;20057;-85
2021/04/24 09:54:34;;;;;;;27.13;7.68;;;;;;;;;;5012709;28;20053;-85
2021/04/24 09:57:19;;;;;;;15.68;5.35;;;13.90;99.90;;;;;;5022541;28;20052;-86
2021/04/24 09:59:57;;;;;;;14.30;6.07;;;13.60;99.90;;;;;;5006649;28;20045;-86
2021/04/24 10:02:44;;;;;;;14.40;6.70;;;13.70;99.90;;;;;;5012147;28;20046;-86
2021/04/24 10:05:17;;;;;;;17.33;6.70;;;13.70;99.20;;;;;;4978037;28;20048;-85
2021/04/24 10:07:56;;;;;;;14.40;5.00;;;13.80;99.80;;;;;;5011152;28;20053;-86
2021/04/24 10:10:29;;;;;;;17.52;4.95;;;13.80;97.20;;;;;;5011659;28;20049;-86
2021/04/24 10:12:58;;;;;;;15.23;5.70;;;12.10;96.70;;;;;;4994990;28;20510;-87
2021/04/24 10:15:37;;;;;;;12.70;4.32;;;14.40;97.70;;;;;;5011979;28;20889;-85
2021/04/24 10:18:15;;;;;;;16.10;5.20;;;13.90;96.00;;;;;;5012336;28;20053;-85
2021/04/24 10:20:45;;;;;;;18.10;4.75;;;14.20;96.40;;;;;;5021514;28;20596;-85
2021/04/24 10:23:14;;;;;;;9.25;4.43;;;14.10;94.50;;;;;;5024766;28;20053;-87
2021/04/24 10:25:42;;;;;;;13.48;5.43;;;14.40;99.90;;;;;;5012259;28;20056;-86
2021/04/24 10:28:09;;;;;;;15.57;4.85;;;14.20;91.10;;;;;;5011270;28;20049;-86
2021/04/24 10:30:38;;;;;;;19.00;5.45;;;14.20;92.40;;;;;;5006433;28;20049;-85
2021/04/24 10:33:06;;;;;;;15.32;4.47;;;14.30;91.30;;;;;;5027178;28;20155;-87
2021/04/24 10:35:35;;;;;;;12.13;4.55;;;14.50;91.30;;;;;;5007460;28;20050;-85
2021/04/24 10:38:06;;;;;;;12.85;3.97;;;14.40;91.90;;;;;;5023831;28;20493;-86
2021/04/24 10:40:44;;;;;;;15.73;5.28;;;14.60;91.10;;;;;;5002440;28;20045;-86
2021/04/24 10:43:20;;;;;;;12.95;5.15;;;14.70;90.30;;;;;;5023512;28;20045;-86
2021/04/24 10:45:48;;;;;;;11.82;3.88;;;;;;;;;;4999328;28;20064;-86
2021/04/24 10:48:24;;;;;;;15.57;5.00;;;14.80;86.10;;;;;;5004772;28;20056;-86
2021/04/24 10:50:54;;;;;;;28.05;6.30;;;15.10;97.50;;;;;;5016872;28;20508;-87
2021/04/24 10:53:30;;;;;;;9.15;4.38;;;14.90;89.50;;;;;;5027341;28;20560;-87
2021/04/24 10:56:02;;;;;;;14.45;6.57;;;15.00;87.10;;;;;;5028538;28;20061;-85
2021/04/24 10:58:32;;;;;;;14.38;6.32;;;15.10;97.30;;;;;;4993009;28;20049;-87
2021/04/24 11:01:01;;;;;;;14.15;5.93;;;15.10;85.80;;;;;;5025073;28;20062;-86
2021/04/24 11:03:41;;;;;;;23.17;6.68;;;15.20;96.30;;;;;;5008839;28;20045;-86
2021/04/24 11:06:14;;;;;;;15.43;6.05;;;15.20;95.20;;;;;;5003463;28;20045;-86
2021/04/24 11:08:43;;;;;;;15.80;4.40;;;14.90;95.80;;;;;;5007336;28;20046;-88
2021/04/24 11:11:21;;;;;;;11.95;5.25;;;15.20;83.50;;;;;;5006594;28;20500;-86
2021/04/24 11:13:56;;;;;;;13.88;5.72;;;15.20;78.80;;;;;;5023322;28;20061;-92
2021/04/24 11:16:31;;;;;;;12.50;4.25;;;14.70;78.50;;;;;;5007467;28;20049;-86
2021/04/24 11:18:59;;;;;;;13.65;3.50;;;15.10;74.80;;;;;;5009318;28;20053;-86
2021/04/24 11:21:30;;;;;;;14.75;4.68;;;15.10;75.70;;;;;;5009485;28;20046;-88
2021/04/24 11:24:15;;;;;;;9.60;4.78;;;15.10;76.00;;;;;;5027770;28;20050;-88
2021/04/24 11:26:42;;;;;;;6.90;3.28;;;12.70;73.30;;;;;;4998563;28;20045;-88
2021/04/24 11:29:13;;;;;;;9.85;4.18;;;15.00;92.70;;;;;;4991207;28;20049;-86
2021/04/24 11:31:45;;;;;;;10.05;3.47;;;14.20;73.00;;;;;;5004372;28;20053;-87
2021/04/24 11:34:42;;;;;;;13.23;3.65;;;15.20;72.40;;;;;;4995452;28;20093;-86
2021/04/24 11:37:16;;;;;;;8.95;4.25;;;15.20;72.80;;;;;;5036086;28;20049;-86
2021/04/24 11:40:08;;;;;;;8.73;3.90;;;15.30;73.50;;;;;;5024621;28;20057;-87
2021/04/24 11:42:48;;;;;;;8.55;4.35;;;15.40;72.60;;;;;;5007530;28;20061;-87
2021/04/24 11:45:46;;;;;;;9.60;4.72;;;15.60;71.20;;;;;;5023261;28;20056;-87
2021/04/24 11:48:46;;;;;;;13.80;4.65;;;15.70;70.10;;;;;;5021342;28;20045;-86
2021/04/24 11:51:47;;;;;;;8.77;4.55;;;16.00;70.30;;;;;;5005466;28;20052;-87
2021/04/24 11:54:38;;;;;;;14.40;5.22;;;15.80;70.00;;;;;;5016352;28;20057;-87
2021/04/24 11:57:19;;;;;;;;;;;16.00;68.90;;;;;;4998162;28;20138;-86
2021/04/24 11:59:50;;;;;;;9.45;3.65;;;15.40;68.70;;;;;;4984916;28;19933;-88
2021/04/24 12:02:32;;;;;;;9.45;4.07;;;16.40;67.70;;;;;;5004713;28;20094;-88
2021/04/24 12:05:12;;;;;;;10.02;4.60;;;;;;;;;;5005648;28;20049;-86
2021/04/24 12:07:42;;;;;;;11.70;4.88;;;16.50;66.20;;;;;;4985024;28;20417;-87
2021/04/24 12:10:14;;;;;;;12.63;5.30;;;16.80;87.90;;;;;;5013143;28;20065;-87
2021/04/24 12:12:42;;;;;;;;;;;16.40;66.90;;;;;;5012288;28;20060;-91
2021/04/24 12:15:24;;;;;;;11.63;4.40;;;16.50;63.30;;;;;;5004930;28;19925;-88
2021/04/24 12:18:03;;;;;;;15.90;5.20;;;16.40;63.90;;;;;;4990299;28;20042;-88
2021/04/24 12:20:38;;;;;;;13.32;4.88;;;16.40;65.70;;;;;;4990036;28;20056;-88
2021/04/24 12:23:12;;;;;;;15.15;5.43;;;16.30;87.90;;;;;;5021571;28;20057;-90
2021/04/24 12:25:46;;;;;;;15.60;5.43;;;16.30;67.50;;;;;;4987959;28;20058;-89
2021/04/24 12:28:15;;;;;;;17.23;6.45;;;16.10;68.60;;;;;;4979327;28;20500;-87
2021/04/24 12:30:46;;;;;;;17.25;7.60;;;16.40;68.40;;;;;;4989006;28;20050;-85
2021/04/24 12:33:22;;;;;;;11.70;5.07;;;16.20;89.60;;;;;;5024274;28;20056;-88
2021/04/24 12:36:00;;;;;;;15.45;5.85;;;16.50;69.80;;;;;;5000325;28;20049;-86
2021/04/24 12:38:30;;;;;;;12.57;5.75;;;16.80;90.10;;;;;;5013362;28;20042;-87
2021/04/24 12:41:05;;;;;;;17.52;5.93;;;16.90;67.30;;;;;;4992171;28;20053;-88
2021/04/24 12:43:37;;;;;;;38.00;7.88;;;16.90;67.40;;;;;;4972471;28;20118;-89
2021/04/24 12:46:08;;;;;;;15.68;6.32;;;17.00;68.00;;;;;;5022220;28;20049;-90
2021/04/24 12:48:41;;;;;;;16.05;6.38;;;17.00;68.20;;;;;;4983017;28;20061;-82
2021/04/24 12:51:21;;;;;;;20.45;6.43;;;17.00;66.60;;;;;;5010206;28;20042;-85
2021/04/24 12:53:53;;;;;;;17.55;6.57;;;16.90;89.60;;;;;;5022162;28;20053;-85
2021/04/24 12:56:25;;;;;;;15.80;6.28;;;17.10;66.50;;;;;;4999264;28;20046;-86
2021/04/24 12:58:54;;;;;;;16.35;6.30;;;17.10;66.50;;;;;;5019264;28;20049;-86
2021/04/24 13:01:24;;;;;;;17.48;5.45;;;17.10;68.00;;;;;;5007995;28;20649;-85
2021/04/24 13:03:54;;;;;;;12.27;5.00;;;17.30;67.10;;;;;;5017039;28;20607;-85
2021/04/24 13:06:30;;;;;;;17.20;6.55;;;17.00;86.60;;;;;;5004161;28;20056;-85
2021/04/24 13:09:05;;;;;;;18.55;7.03;;;17.70;65.40;;;;;;5019682;28;20054;-85
2021/04/24 13:11:42;;;;;;;21.48;5.88;;;;;;;;;;5019055;28;20058;-86